Time;durP1;ratioP1;P1;durP2;ratioP2;P2;SDS_P1;SDS_P2;PMS_P1;PMS_P2;Temp;Humidity;BMP_temperature;BMP_pressure;BME280_temperature;BME280_humidity;BME280_pressure;Samples;Min_cycle;Max_cycle;Signal;HPM_P1;HPM_P2
2023/12/09 00:00:39;;;;;;;25.70;8.10;;;;;;;;;;4998287;28;20053;-56
2023/12/09 00:03:07;;;;;;;23.52;9.35;;;;;;;;;;4998586;28;20588;-55
2023/12/09 00:05:33;;;;;;;27.80;10.15;;;;;;;;;;5001029;28;20042;-54
2023/12/09 00:07:59;;;;;;;33.88;9.57;;;;;;;;;;5003865;28;20353;-54
2023/12/09 00:10:25;;;;;;;25.48;8.05;;;;;;;;;;4994836;28;20041;-53
2023/12/09 00:12:51;;;;;;;22.88;7.97;;;;;;;;;;4993268;28;20694;-55
2023/12/09 00:15:17;;;;;;;24.50;6.50;;;;;;;;;;4995822;28;20042;-56
2023/12/09 00:17:43;;;;;;;20.85;6.65;;;;;;;;;;5002935;28;20061;-55
2023/12/09 00:20:09;;;;;;;16.42;6.00;;;;;;;;;;4996568;28;20049;-57
2023/12/09 00:22:35;;;;;;;26.05;7.68;;;;;;;;;;5003214;28;20053;-57
2023/12/09 00:25:01;;;;;;;18.30;6.07;;;;;;;;;;5002071;28;20048;-55
2023/12/09 00:27:27;;;;;;;22.55;5.63;;;;;;;;;;4998020;28;20054;-55
2023/12/09 00:29:53;;;;;;;15.90;5.40;;;;;;;;;;4998820;28;20048;-56
2023/12/09 00:32:19;;;;;;;17.70;4.85;;;;;;;;;;4996089;28;21074;-56
2023/12/09 00:34:45;;;;;;;16.55;4.43;;;;;;;;;;4997931;28;20083;-56
2023/12/09 00:37:11;;;;;;;16.30;4.65;;;;;;;;;;4996000;28;20072;-56
2023/12/09 00:39:37;;;;;;;17.27;5.25;;;;;;;;;;5001944;28;20959;-56
2023/12/09 00:42:03;;;;;;;16.02;4.50;;;;;;;;;;4996727;28;20076;-55
2023/12/09 00:44:29;;;;;;;18.67;3.97;;;;;;;;;;4999126;28;20064;-56
2023/12/09 00:46:55;;;;;;;17.55;4.57;;;;;;;;;;4999035;28;20038;-53
2023/12/09 00:49:21;;;;;;;17.67;4.35;;;;;;;;;;5000233;28;20050;-55
2023/12/09 00:51:47;;;;;;;16.67;4.35;;;;;;;;;;5000459;28;20096;-52
2023/12/09 00:54:13;;;;;;;15.25;4.25;;;;;;;;;;4997607;28;20441;-54
2023/12/09 00:56:39;;;;;;;19.10;4.70;;;;;;;;;;5000050;28;20500;-55
2023/12/09 00:59:05;;;;;;;20.85;5.05;;;;;;;;;;4996691;28;20485;-55
2023/12/09 01:01:33;;;;;;;23.00;4.97;;;;;;;;;;4999110;28;20472;-55
2023/12/09 01:04:00;;;;;;;14.60;4.53;;;;;;;;;;5003863;28;20508;-53
2023/12/09 01:06:26;;;;;;;17.13;4.32;;;;;;;;;;5000857;28;20532;-53
2023/12/09 01:08:52;;;;;;;18.38;4.57;;;;;;;;;;4995409;28;20038;-54
2023/12/09 01:11:18;;;;;;;20.50;4.82;;;;;;;;;;5003117;28;20521;-54
2023/12/09 01:13:44;;;;;;;26.23;4.30;;;;;;;;;;5002492;28;20080;-55
2023/12/09 01:16:10;;;;;;;19.80;4.45;;;;;;;;;;4999509;28;20697;-53
2023/12/09 01:18:36;;;;;;;24.40;4.63;;;;;;;;;;4997660;28;20044;-55
2023/12/09 01:21:02;;;;;;;24.30;5.35;;;;;;;;;;4995670;28;20041;-51
2023/12/09 01:23:28;;;;;;;23.88;4.20;;;;;;;;;;4999394;28;20133;-54
2023/12/09 01:25:54;;;;;;;19.77;4.80;;;;;;;;;;4998511;28;20041;-54
2023/12/09 01:28:20;;;;;;;20.92;4.75;;;;;;;;;;4995984;28;20053;-55
2023/12/09 01:30:46;;;;;;;17.75;5.03;;;;;;;;;;4997021;28;20357;-54
2023/12/09 01:33:12;;;;;;;16.88;4.30;;;;;;;;;;4995994;28;20037;-54
2023/12/09 01:35:38;;;;;;;15.75;4.25;;;;;;;;;;4999956;28;20061;-53
2023/12/09 01:38:04;;;;;;;21.05;4.75;;;;;;;;;;4996304;28;20040;-56
2023/12/09 01:40:30;;;;;;;17.90;4.38;;;;;;;;;;5002960;28;20042;-54
2023/12/09 01:42:56;;;;;;;11.25;3.92;;;;;;;;;;4996707;28;20136;-55
2023/12/09 01:45:22;;;;;;;15.63;3.63;;;;;;;;;;4995174;28;20389;-54
2023/12/09 01:47:48;;;;;;;14.60;3.80;;;;;;;;;;4997966;28;20048;-54
2023/12/09 01:50:15;;;;;;;19.05;4.32;;;;;;;;;;4997599;28;20041;-54
2023/12/09 01:52:41;;;;;;;16.90;3.75;;;;;;;;;;5000578;28;20627;-54
2023/12/09 01:55:10;;;;;;;16.00;4.07;;;;;;;;;;4997297;28;20136;-54
2023/12/09 01:57:36;;;;;;;16.00;3.70;;;;;;;;;;5000511;28;20119;-55
2023/12/09 02:00:06;;;;;;;13.90;4.22;;;;;;;;;;4998592;28;20125;-53
2023/12/09 02:02:32;;;;;;;20.85;4.35;;;;;;;;;;4995115;28;20041;-53
2023/12/09 02:04:59;;;;;;;18.50;4.20;;;;;;;;;;4997151;28;20076;-53
2023/12/09 02:07:25;;;;;;;20.75;4.70;;;;;;;;;;5001184;28;20370;-54
2023/12/09 02:09:52;;;;;;;17.95;4.65;;;;;;;;;;4999455;28;20409;-54
2023/12/09 02:12:30;;;;;;;18.33;4.43;;;;;;;;;;4992038;28;20034;-55
2023/12/09 02:15:06;;;;;;;20.58;5.20;;;;;;;;;;4998747;28;20049;-53
2023/12/09 02:17:41;;;;;;;19.27;4.93;;;;;;;;;;4998804;28;20246;-53
2023/12/09 02:20:07;;;;;;;19.70;6.00;;;;;;;;;;5000639;28;20084;-53
2023/12/09 02:22:33;;;;;;;28.13;5.18;;;;;;;;;;4999991;28;20048;-54
2023/12/09 02:24:59;;;;;;;19.40;5.00;;;;;;;;;;4999212;28;21690;-54
2023/12/09 02:27:28;;;;;;;25.27;4.93;;;;;;;;;;4997630;28;20779;-53
2023/12/09 02:29:57;;;;;;;16.80;4.63;;;;;;;;;;4999986;28;20083;-53
2023/12/09 02:32:24;;;;;;;21.80;5.30;;;;;;;;;;4999380;28;20038;-53
2023/12/09 02:34:51;;;;;;;21.00;4.55;;;;;;;;;;4995812;28;20125;-53
2023/12/09 02:37:18;;;;;;;18.45;4.80;;;;;;;;;;4999344;28;20140;-55
2023/12/09 02:39:45;;;;;;;23.80;4.43;;;;;;;;;;4998214;28;20081;-54
2023/12/09 02:42:11;;;;;;;22.58;4.50;;;;;;;;;;4999817;28;20065;-52
2023/12/09 02:44:41;;;;;;;17.40;4.20;;;;;;;;;;4996984;28;20052;-53
2023/12/09 02:47:07;;;;;;;24.67;4.43;;;;;;;;;;4997928;28;20551;-55
2023/12/09 02:49:34;;;;;;;24.08;5.03;;;;;;;;;;4996625;28;20125;-54
2023/12/09 02:52:00;;;;;;;28.42;4.35;;;;;;;;;;4997182;28;20149;-55
2023/12/09 02:54:26;;;;;;;19.02;5.20;;;;;;;;;;4999103;28;20405;-55
2023/12/09 02:56:51;;;;;;;28.75;4.85;;;;;;;;;;4999730;28;20033;-55
2023/12/09 02:59:17;;;;;;;27.80;4.90;;;;;;;;;;4996446;28;20084;-53
2023/12/09 03:01:43;;;;;;;29.67;5.00;;;;;;;;;;5000945;28;20076;-53
2023/12/09 03:04:09;;;;;;;24.80;4.93;;;;;;;;;;4997639;28;20046;-54
2023/12/09 03:06:35;;;;;;;22.73;4.95;;;;;;;;;;5002697;28;20207;-53
2023/12/09 03:09:01;;;;;;;22.02;4.85;;;;;;;;;;4999065;28;20112;-53
2023/12/09 03:11:27;;;;;;;17.58;4.20;;;;;;;;;;4998452;28;20038;-54
2023/12/09 03:13:53;;;;;;;27.10;4.78;;;;;;;;;;5000087;28;20070;-54
2023/12/09 03:16:19;;;;;;;27.90;4.63;;;;;;;;;;4984729;28;20514;-55
2023/12/09 03:18:45;;;;;;;22.02;4.97;;;;;;;;;;4999139;28;20065;-56
2023/12/09 03:21:15;;;;;;;24.23;5.25;;;;;;;;;;4998671;28;20469;-55
2023/12/09 03:23:42;;;;;;;25.85;5.20;;;;;;;;;;4997892;28;20477;-56
2023/12/09 03:26:15;;;;;;;18.13;4.30;;;;;;;;;;4997863;28;20052;-55
2023/12/09 03:28:41;;;;;;;31.55;5.80;;;;;;;;;;4997515;28;20041;-56
2023/12/09 03:31:07;;;;;;;27.75;4.65;;;;;;;;;;4995502;28;20252;-53
2023/12/09 03:33:34;;;;;;;23.90;5.30;;;;;;;;;;4998673;28;20085;-54
2023/12/09 03:36:00;;;;;;;21.15;4.20;;;;;;;;;;5001548;28;20129;-54
2023/12/09 03:38:26;;;;;;;20.17;4.68;;;;;;;;;;5000699;28;20037;-56
2023/12/09 03:40:52;;;;;;;24.38;5.20;;;;;;;;;;5002511;28;20096;-56
2023/12/09 03:43:18;;;;;;;30.50;5.18;;;;;;;;;;4997177;28;20487;-54
2023/12/09 03:45:44;;;;;;;24.98;5.10;;;;;;;;;;4999393;28;20589;-54
2023/12/09 03:48:09;;;;;;;20.92;4.53;;;;;;;;;;4999645;28;20585;-55
2023/12/09 03:50:35;;;;;;;15.98;4.35;;;;;;;;;;5002033;28;20637;-56
2023/12/09 03:53:01;;;;;;;22.63;5.20;;;;;;;;;;4998295;28;20597;-52
2023/12/09 03:55:28;;;;;;;17.00;4.40;;;;;;;;;;4999521;28;20400;-55
2023/12/09 03:57:54;;;;;;;23.13;4.93;;;;;;;;;;4997857;28;20060;-56
2023/12/09 04:00:20;;;;;;;25.67;5.18;;;;;;;;;;4998333;28;20493;-54
2023/12/09 04:02:46;;;;;;;22.40;5.70;;;;;;;;;;5002550;28;20301;-55
2023/12/09 04:05:13;;;;;;;22.10;4.57;;;;;;;;;;5000758;28;20525;-53
2023/12/09 04:07:39;;;;;;;16.25;4.60;;;;;;;;;;5001586;28;20038;-55
2023/12/09 04:10:05;;;;;;;23.00;5.28;;;;;;;;;;5002072;28;20120;-55
2023/12/09 04:12:31;;;;;;;20.02;4.72;;;;;;;;;;4999339;28;20029;-54
2023/12/09 04:14:57;;;;;;;21.45;5.03;;;;;;;;;;5002517;28;20041;-55
2023/12/09 04:17:23;;;;;;;23.55;4.70;;;;;;;;;;4994817;28;20083;-56
2023/12/09 04:19:51;;;;;;;25.80;4.85;;;;;;;;;;4999944;28;20336;-55
2023/12/09 04:22:17;;;;;;;27.60;5.90;;;;;;;;;;5001642;28;20025;-54
2023/12/09 04:24:43;;;;;;;21.98;4.97;;;;;;;;;;5001956;28;20034;-54
2023/12/09 04:27:09;;;;;;;18.08;4.38;;;;;;;;;;5000521;28;20025;-55
2023/12/09 04:29:35;;;;;;;21.98;4.88;;;;;;;;;;4999324;28;20400;-55
2023/12/09 04:32:01;;;;;;;17.60;4.47;;;;;;;;;;4999700;28;20044;-55
2023/12/09 04:34:27;;;;;;;25.02;4.90;;;;;;;;;;4999810;28;20545;-55
2023/12/09 04:36:53;;;;;;;20.35;5.05;;;;;;;;;;5003098;28;20041;-55
2023/12/09 04:39:19;;;;;;;18.27;4.88;;;;;;;;;;4999143;28;20040;-54
2023/12/09 04:41:47;;;;;;;20.80;5.32;;;;;;;;;;5003779;28;20887;-55
2023/12/09 04:44:13;;;;;;;20.33;4.38;;;;;;;;;;4999892;28;20061;-52
2023/12/09 04:46:39;;;;;;;25.98;5.13;;;;;;;;;;5001325;28;20474;-54
2023/12/09 04:49:05;;;;;;;21.05;4.43;;;;;;;;;;4997488;28;20049;-52
2023/12/09 04:51:31;;;;;;;15.77;4.97;;;;;;;;;;4985008;28;20101;-54
2023/12/09 04:53:56;;;;;;;23.70;5.30;;;;;;;;;;5001895;28;20040;-53
2023/12/09 04:56:22;;;;;;;24.55;5.20;;;;;;;;;;5000114;28;20607;-53
2023/12/09 04:58:48;;;;;;;20.42;5.03;;;;;;;;;;5000445;28;20076;-54
2023/12/09 05:01:14;;;;;;;20.15;5.03;;;;;;;;;;4999153;28;20509;-53
2023/12/09 05:03:40;;;;;;;26.15;5.03;;;;;;;;;;5000636;28;20042;-52
2023/12/09 05:06:08;;;;;;;21.17;5.20;;;;;;;;;;4999678;28;20041;-52
2023/12/09 05:08:33;;;;;;;19.10;5.32;;;;;;;;;;4996738;28;20210;-52
2023/12/09 05:10:59;;;;;;;20.25;5.47;;;;;;;;;;4996952;28;20058;-52
2023/12/09 05:13:25;;;;;;;25.35;5.30;;;;;;;;;;4998038;28;20066;-53
2023/12/09 05:15:51;;;;;;;21.13;5.03;;;;;;;;;;5001521;28;20083;-54
2023/12/09 05:18:17;;;;;;;22.15;5.80;;;;;;;;;;4999620;28;20045;-53
2023/12/09 05:20:44;;;;;;;22.42;5.70;;;;;;;;;;4999313;28;20046;-54
2023/12/09 05:23:10;;;;;;;26.75;5.90;;;;;;;;;;4996286;28;20046;-53
2023/12/09 05:25:36;;;;;;;24.13;5.35;;;;;;;;;;4999097;28;20215;-53
2023/12/09 05:28:02;;;;;;;20.75;5.13;;;;;;;;;;5002524;28;20038;-51
2023/12/09 05:30:28;;;;;;;25.10;5.63;;;;;;;;;;4998258;28;20034;-53
2023/12/09 05:32:54;;;;;;;25.25;6.32;;;;;;;;;;4999421;28;20270;-55
2023/12/09 05:35:20;;;;;;;23.48;6.70;;;;;;;;;;4999408;28;20439;-55
2023/12/09 05:37:46;;;;;;;24.35;6.57;;;;;;;;;;5002486;28;20052;-54
2023/12/09 05:40:12;;;;;;;28.20;6.90;;;;;;;;;;5000633;28;20037;-56
2023/12/09 05:42:38;;;;;;;25.05;6.72;;;;;;;;;;5001982;28;20045;-55
2023/12/09 05:45:04;;;;;;;34.53;8.45;;;;;;;;;;5003676;28;20037;-53
2023/12/09 05:47:30;;;;;;;18.27;5.90;;;;;;;;;;4996203;28;20050;-56
2023/12/09 05:49:56;;;;;;;0.00;0.00;;;;;;;;;;5000099;28;20496;-55
2023/12/09 05:52:22;;;;;;;20.48;4.90;;;;;;;;;;5000283;28;20448;-55
2023/12/09 05:54:48;;;;;;;27.73;6.18;;;;;;;;;;4998003;28;20554;-57
2023/12/09 05:57:14;;;;;;;21.23;6.13;;;;;;;;;;4997886;28;20521;-56
2023/12/09 05:59:40;;;;;;;22.80;6.20;;;;;;;;;;4999474;28;21227;-54
2023/12/09 06:02:06;;;;;;;29.45;6.68;;;;;;;;;;4997696;28;20041;-56
2023/12/09 06:04:32;;;;;;;22.38;6.40;;;;;;;;;;5002536;28;20025;-55
2023/12/09 06:06:58;;;;;;;21.73;6.13;;;;;;;;;;5000339;28;20034;-55
2023/12/09 06:09:24;;;;;;;23.80;6.40;;;;;;;;;;5000682;28;20567;-55
2023/12/09 06:11:50;;;;;;;20.42;5.70;;;;;;;;;;4981243;28;20465;-56
2023/12/09 06:14:16;;;;;;;21.67;6.30;;;;;;;;;;4994642;28;20143;-55
2023/12/09 06:16:42;;;;;;;21.10;6.15;;;;;;;;;;4996134;28;20047;-54
2023/12/09 06:19:09;;;;;;;24.38;6.22;;;;;;;;;;4998151;28;20034;-52
2023/12/09 06:21:35;;;;;;;20.58;5.97;;;;;;;;;;4999068;28;20177;-53
2023/12/09 06:24:01;;;;;;;22.85;6.65;;;;;;;;;;4995610;28;20546;-54
2023/12/09 06:26:28;;;;;;;21.88;5.22;;;;;;;;;;4998092;28;20046;-55
2023/12/09 06:28:54;;;;;;;24.67;5.70;;;;;;;;;;4997575;28;20037;-54
2023/12/09 06:31:20;;;;;;;22.40;5.82;;;;;;;;;;4993029;28;20045;-54
2023/12/09 06:33:46;;;;;;;18.25;5.80;;;;;;;;;;5000415;28;20037;-56
2023/12/09 06:36:12;;;;;;;21.77;6.72;;;;;;;;;;4999090;28;20044;-56
2023/12/09 06:38:40;;;;;;;22.02;6.50;;;;;;;;;;4996200;28;20064;-54
2023/12/09 06:41:07;;;;;;;17.40;5.82;;;;;;;;;;5000785;28;20045;-54
2023/12/09 06:43:33;;;;;;;25.10;6.70;;;;;;;;;;4998672;28;20103;-55
2023/12/09 06:46:00;;;;;;;15.95;5.95;;;;;;;;;;4982823;28;20080;-55
2023/12/09 06:48:26;;;;;;;19.88;6.00;;;;;;;;;;4996607;28;20428;-55
2023/12/09 06:50:52;;;;;;;21.02;6.47;;;;;;;;;;4998235;28;20029;-56
2023/12/09 06:53:18;;;;;;;14.90;6.60;;;;;;;;;;4996153;28;20076;-55
2023/12/09 06:55:44;;;;;;;21.58;6.72;;;;;;;;;;5000426;28;20037;-51
2023/12/09 06:58:10;;;;;;;24.13;7.70;;;;;;;;;;4996572;28;20243;-54
2023/12/09 07:00:37;;;;;;;22.42;7.07;;;;;;;;;;4997345;28;20050;-54
2023/12/09 07:03:03;;;;;;;19.73;7.07;;;;;;;;;;4997712;28;20665;-52
2023/12/09 07:05:29;;;;;;;17.63;7.45;;;;;;;;;;5001513;28;20038;-53
2023/12/09 07:07:55;;;;;;;25.20;10.05;;;;;;;;;;4999654;28;20053;-54
2023/12/09 07:10:21;;;;;;;42.15;16.65;;;;;;;;;;4999537;28;20076;-51
2023/12/09 07:12:47;;;;;;;34.67;15.30;;;;;;;;;;4998678;28;20124;-52
2023/12/09 07:15:13;;;;;;;38.95;16.77;;;;;;;;;;4996536;28;20084;-53
2023/12/09 07:17:39;;;;;;;51.45;20.55;;;;;;;;;;4998589;28;20050;-51
2023/12/09 07:20:06;;;;;;;49.42;19.27;;;;;;;;;;5003422;28;20826;-53
2023/12/09 07:22:32;;;;;;;38.88;15.05;;;;;;;;;;5001099;28;20100;-53
2023/12/09 07:24:58;;;;;;;43.90;18.08;;;;;;;;;;5001269;28;20037;-52
2023/12/09 07:27:24;;;;;;;40.45;18.13;;;;;;;;;;4998740;28;20040;-53
2023/12/09 07:29:50;;;;;;;45.60;24.17;;;;;;;;;;5003399;28;20041;-54
2023/12/09 07:32:16;;;;;;;32.15;13.38;;;;;;;;;;5001706;28;20092;-53
2023/12/09 07:34:42;;;;;;;36.55;19.25;;;;;;;;;;5002210;28;20037;-55
2023/12/09 07:37:11;;;;;;;35.03;14.90;;;;;;;;;;5000911;28;20045;-53
2023/12/09 07:39:37;;;;;;;39.75;19.90;;;;;;;;;;5003947;28;20037;-55
2023/12/09 07:42:03;;;;;;;40.08;18.42;;;;;;;;;;5001844;28;20582;-54
2023/12/09 07:44:29;;;;;;;49.03;23.95;;;;;;;;;;5004047;28;20867;-52
2023/12/09 07:46:55;;;;;;;44.75;18.88;;;;;;;;;;5002872;28;20042;-49
2023/12/09 07:49:21;;;;;;;36.10;16.90;;;;;;;;;;5001735;28;20057;-53
2023/12/09 07:51:47;;;;;;;57.50;25.48;;;;;;;;;;5001699;28;20038;-52
2023/12/09 07:54:13;;;;;;;30.73;13.80;;;;;;;;;;5000595;28;20038;-53
2023/12/09 07:56:39;;;;;;;26.98;13.15;;;;;;;;;;5000867;28;20042;-50
2023/12/09 07:59:05;;;;;;;38.85;16.40;;;;;;;;;;5001212;28;20033;-54
2023/12/09 08:01:31;;;;;;;36.28;16.38;;;;;;;;;;5004517;28;20043;-54
2023/12/09 08:03:57;;;;;;;34.35;16.92;;;;;;;;;;5001790;28;20258;-56
2023/12/09 08:06:23;;;;;;;39.20;13.43;;;;;;;;;;4999641;28;20397;-56
2023/12/09 08:08:50;;;;;;;29.92;13.20;;;;;;;;;;5004377;28;20045;-54
2023/12/09 08:11:17;;;;;;;37.67;17.77;;;;;;;;;;5001270;28;20132;-52
2023/12/09 08:13:43;;;;;;;28.40;15.23;;;;;;;;;;5002277;28;20041;-54
2023/12/09 08:16:10;;;;;;;37.30;17.20;;;;;;;;;;4997572;28;20046;-56
2023/12/09 08:18:36;;;;;;;26.25;11.95;;;;;;;;;;4999097;28;20111;-55
2023/12/09 08:21:01;;;;;;;37.95;15.32;;;;;;;;;;4997819;28;20041;-51
2023/12/09 08:23:28;;;;;;;29.77;12.43;;;;;;;;;;5000327;28;20060;-54
2023/12/09 08:25:55;;;;;;;34.45;14.75;;;;;;;;;;5003770;28;20045;-55
2023/12/09 08:28:20;;;;;;;25.00;12.52;;;;;;;;;;5001088;28;20044;-52
2023/12/09 08:30:46;;;;;;;31.65;12.48;;;;;;;;;;4999245;28;20037;-56
2023/12/09 08:33:13;;;;;;;32.15;15.85;;;;;;;;;;4996635;28;20041;-53
2023/12/09 08:35:39;;;;;;;50.20;24.10;;;;;;;;;;5001946;28;20557;-54
2023/12/09 08:38:05;;;;;;;36.33;15.95;;;;;;;;;;5002820;28;20042;-56
2023/12/09 08:40:31;;;;;;;40.92;18.25;;;;;;;;;;4984173;28;20053;-56
2023/12/09 08:42:57;;;;;;;46.47;18.35;;;;;;;;;;5000067;28;20099;-56
2023/12/09 08:45:23;;;;;;;27.27;12.63;;;;;;;;;;4997369;28;20045;-55
2023/12/09 08:47:49;;;;;;;32.80;13.13;;;;;;;;;;4999055;28;21263;-55
2023/12/09 08:50:15;;;;;;;26.33;11.65;;;;;;;;;;4997641;28;20550;-55
2023/12/09 08:52:41;;;;;;;27.02;11.07;;;;;;;;;;5000723;28;20037;-55
2023/12/09 08:55:08;;;;;;;23.25;9.38;;;;;;;;;;4996705;28;20033;-56
2023/12/09 08:57:34;;;;;;;21.60;9.05;;;;;;;;;;4999759;28;20492;-56
2023/12/09 09:00:01;;;;;;;24.13;10.15;;;;;;;;;;4999979;28;20149;-57
2023/12/09 09:02:27;;;;;;;32.10;12.55;;;;;;;;;;4997012;28;20044;-57
2023/12/09 09:04:53;;;;;;;26.85;11.40;;;;;;;;;;4998127;28;20060;-57
2023/12/09 09:07:19;;;;;;;32.17;13.38;;;;;;;;;;4997785;28;20081;-57
2023/12/09 09:09:45;;;;;;;34.38;14.00;;;;;;;;;;5000419;28;20323;-57
2023/12/09 09:12:11;;;;;;;47.70;20.20;;;;;;;;;;4998135;28;20030;-56
2023/12/09 09:14:37;;;;;;;50.83;23.20;;;;;;;;;;4996321;28;20033;-55
2023/12/09 09:17:04;;;;;;;101.70;37.05;;;;;;;;;;4996787;28;20374;-55
2023/12/09 09:19:30;;;;;;;35.30;12.95;;;;;;;;;;5000323;28;20065;-55
2023/12/09 09:21:56;;;;;;;53.85;20.25;;;;;;;;;;5000032;28;20675;-56
2023/12/09 09:24:22;;;;;;;45.30;17.00;;;;;;;;;;4997283;28;20112;-57
2023/12/09 09:26:48;;;;;;;53.53;20.40;;;;;;;;;;5000033;28;20045;-57
2023/12/09 09:29:14;;;;;;;37.38;14.18;;;;;;;;;;4997173;28;20065;-56
2023/12/09 09:31:40;;;;;;;39.53;14.95;;;;;;;;;;4998405;28;20076;-58
2023/12/09 09:34:06;;;;;;;31.55;10.05;;;;;;;;;;4996867;28;20038;-57
2023/12/09 09:36:32;;;;;;;38.33;15.05;;;;;;;;;;4998476;28;20462;-58
2023/12/09 09:38:58;;;;;;;36.95;13.73;;;;;;;;;;5000075;28;20558;-57
2023/12/09 09:41:47;;;;;;;44.72;17.70;;;;;;;;;;4999397;28;20164;-57
2023/12/09 09:44:18;;;;;;;31.65;10.90;;;;;;;;;;4984348;28;20091;-57
2023/12/09 09:46:44;;;;;;;24.52;7.45;;;;;;;;;;4998596;28;20041;-58
2023/12/09 09:49:12;;;;;;;35.38;14.38;;;;;;;;;;4996973;28;20045;-57
2023/12/09 09:51:40;;;;;;;35.60;14.23;;;;;;;;;;5002471;28;20068;-56
2023/12/09 09:54:09;;;;;;;33.95;12.10;;;;;;;;;;4995542;28;20436;-57
2023/12/09 09:56:35;;;;;;;28.10;11.75;;;;;;;;;;4977404;28;20571;-56
2023/12/09 09:59:03;;;;;;;26.58;10.60;;;;;;;;;;4996823;28;20132;-55
2023/12/09 10:01:30;;;;;;;34.03;13.80;;;;;;;;;;4999493;28;20049;-57
2023/12/09 10:03:56;;;;;;;30.67;10.57;;;;;;;;;;4997373;28;20040;-57
2023/12/09 10:06:24;;;;;;;40.13;14.93;;;;;;;;;;4998449;28;20041;-57
2023/12/09 10:08:51;;;;;;;28.52;13.07;;;;;;;;;;4997924;28;20576;-56
2023/12/09 10:11:17;;;;;;;56.00;20.73;;;;;;;;;;4997791;28;20041;-56
2023/12/09 10:13:45;;;;;;;49.10;17.55;;;;;;;;;;4996023;28;20048;-57
2023/12/09 10:16:11;;;;;;;31.17;13.40;;;;;;;;;;4998997;28;20397;-57
2023/12/09 10:18:38;;;;;;;50.83;19.33;;;;;;;;;;4998988;28;20049;-57
2023/12/09 10:21:08;;;;;;;22.63;9.30;;;;;;;;;;4998991;28;20065;-57
2023/12/09 10:23:34;;;;;;;25.30;8.88;;;;;;;;;;4999167;28;20038;-56
2023/12/09 10:26:00;;;;;;;19.67;7.07;;;;;;;;;;4998644;28;20326;-56
2023/12/09 10:28:26;;;;;;;18.27;6.78;;;;;;;;;;4998418;28;20037;-57
2023/12/09 10:30:52;;;;;;;19.20;6.95;;;;;;;;;;4994685;28;20417;-55
2023/12/09 10:33:18;;;;;;;20.02;7.13;;;;;;;;;;4998904;28;20083;-57
2023/12/09 10:35:44;;;;;;;16.92;6.72;;;;;;;;;;4998741;28;20034;-56
2023/12/09 10:38:10;;;;;;;20.83;5.72;;;;;;;;;;4998058;28;20114;-57
2023/12/09 10:40:36;;;;;;;23.23;6.28;;;;;;;;;;5003090;28;20202;-57
2023/12/09 10:43:05;;;;;;;14.75;6.28;;;;;;;;;;5000430;28;20033;-56
2023/12/09 10:45:31;;;;;;;19.52;7.28;;;;;;;;;;4993678;28;20394;-56
2023/12/09 10:47:58;;;;;;;19.13;5.97;;;;;;;;;;4997972;28;20056;-55
2023/12/09 10:50:24;;;;;;;19.58;6.90;;;;;;;;;;4996719;28;20143;-56
2023/12/09 10:52:50;;;;;;;18.33;5.90;;;;;;;;;;4998893;28;20034;-57
2023/12/09 10:55:16;;;;;;;20.67;5.72;;;;;;;;;;5001368;28;20045;-57
2023/12/09 10:57:43;;;;;;;25.95;7.32;;;;;;;;;;5002785;28;20033;-55
2023/12/09 11:00:10;;;;;;;18.60;6.15;;;;;;;;;;5000478;28;20342;-57
2023/12/09 11:02:40;;;;;;;19.23;5.75;;;;;;;;;;4999842;28;20044;-56
2023/12/09 11:05:09;;;;;;;23.77;6.00;;;;;;;;;;4999074;28;20596;-57
2023/12/09 11:07:36;;;;;;;21.13;6.00;;;;;;;;;;5004622;28;20567;-56
2023/12/09 11:10:02;;;;;;;23.80;5.35;;;;;;;;;;5000725;28;20579;-56
2023/12/09 11:12:30;;;;;;;27.77;6.30;;;;;;;;;;5002623;28;20478;-56
2023/12/09 11:15:00;;;;;;;21.58;5.45;;;;;;;;;;4986163;28;20069;-57
2023/12/09 11:17:37;;;;;;;25.27;6.32;;;;;;;;;;5001640;28;20041;-57
2023/12/09 11:20:09;;;;;;;23.35;5.40;;;;;;;;;;5001167;28;20121;-57
2023/12/09 11:22:40;;;;;;;18.15;5.00;;;;;;;;;;5001256;28;20088;-56
2023/12/09 11:25:07;;;;;;;23.90;4.78;;;;;;;;;;4999502;28;20133;-57
2023/12/09 11:27:40;;;;;;;17.58;5.13;;;;;;;;;;5005182;28;20047;-57
2023/12/09 11:30:06;;;;;;;17.88;4.78;;;;;;;;;;4997545;28;20042;-57
2023/12/09 11:32:32;;;;;;;23.35;5.30;;;;;;;;;;5001796;28;20041;-57
2023/12/09 11:34:59;;;;;;;22.05;5.00;;;;;;;;;;5004228;28;20246;-58
2023/12/09 11:37:28;;;;;;;21.38;4.38;;;;;;;;;;5000365;28;20152;-57
2023/12/09 11:39:57;;;;;;;16.40;4.03;;;;;;;;;;4997881;28;20293;-56
2023/12/09 11:42:25;;;;;;;23.90;4.60;;;;;;;;;;5004298;28;20146;-56
2023/12/09 11:44:51;;;;;;;22.92;4.10;;;;;;;;;;4999849;28;20525;-55
2023/12/09 11:47:19;;;;;;;17.80;4.10;;;;;;;;;;5001146;28;20896;-57
2023/12/09 11:49:46;;;;;;;20.85;4.50;;;;;;;;;;4998437;28;20045;-57
2023/12/09 11:52:12;;;;;;;14.52;4.03;;;;;;;;;;4997093;28;20026;-56
2023/12/09 11:54:38;;;;;;;16.60;4.47;;;;;;;;;;4999848;28;20030;-56
2023/12/09 11:57:04;;;;;;;20.55;4.97;;;;;;;;;;4997519;28;20112;-56
2023/12/09 11:59:30;;;;;;;15.40;3.97;;;;;;;;;;4995585;28;20046;-56
2023/12/09 12:01:58;;;;;;;20.90;4.97;;;;;;;;;;5001315;28;20041;-55
2023/12/09 12:04:32;;;;;;;20.75;3.95;;;;;;;;;;4998808;28;20069;-55
2023/12/09 12:06:58;;;;;;;21.50;5.05;;;;;;;;;;4998942;28;20038;-55
2023/12/09 12:09:24;;;;;;;15.55;4.15;;;;;;;;;;4997593;28;20045;-54
2023/12/09 12:11:50;;;;;;;23.92;4.57;;;;;;;;;;4998584;28;20034;-55
2023/12/09 12:14:16;;;;;;;19.35;4.60;;;;;;;;;;4998197;28;20300;-57
2023/12/09 12:16:42;;;;;;;16.98;3.95;;;;;;;;;;5000478;28;20473;-55
2023/12/09 12:19:08;;;;;;;19.95;3.80;;;;;;;;;;4998786;28;20133;-55
2023/12/09 12:21:34;;;;;;;21.45;5.07;;;;;;;;;;4999603;28;20412;-55
2023/12/09 12:24:04;;;;;;;23.90;4.47;;;;;;;;;;4999243;28;20037;-56
2023/12/09 12:26:30;;;;;;;13.57;4.03;;;;;;;;;;4999225;28;20052;-55
2023/12/09 12:28:56;;;;;;;14.70;3.65;;;;;;;;;;4999331;28;20407;-56
2023/12/09 12:31:23;;;;;;;11.77;3.20;;;;;;;;;;4994263;28;20560;-56
2023/12/09 12:33:49;;;;;;;17.48;3.55;;;;;;;;;;4999451;28;20644;-55
2023/12/09 12:36:16;;;;;;;18.60;3.58;;;;;;;;;;4997509;28;20062;-54
2023/12/09 12:38:42;;;;;;;13.80;3.15;;;;;;;;;;4998830;28;20800;-56
2023/12/09 12:41:08;;;;;;;16.02;2.92;;;;;;;;;;4995244;28;20038;-55
2023/12/09 12:43:35;;;;;;;17.13;3.10;;;;;;;;;;5000619;28;20360;-56
2023/12/09 12:46:01;;;;;;;14.05;3.13;;;;;;;;;;4982236;28;20038;-56
2023/12/09 12:48:27;;;;;;;10.23;2.53;;;;;;;;;;4997364;28;20056;-55
2023/12/09 12:50:53;;;;;;;15.10;2.90;;;;;;;;;;4995755;28;20041;-55
2023/12/09 12:53:20;;;;;;;17.13;2.83;;;;;;;;;;4997375;28;20042;-56
2023/12/09 12:55:46;;;;;;;10.02;2.58;;;;;;;;;;4996287;28;20176;-58
2023/12/09 12:58:12;;;;;;;15.15;3.42;;;;;;;;;;4995958;28;20045;-58
2023/12/09 13:00:39;;;;;;;11.70;2.50;;;;;;;;;;4996414;28;20579;-58
2023/12/09 13:03:06;;;;;;;13.65;2.53;;;;;;;;;;4997662;28;20033;-57
2023/12/09 13:05:32;;;;;;;15.00;2.78;;;;;;;;;;4997671;28;20561;-58
2023/12/09 13:07:58;;;;;;;8.50;2.40;;;;;;;;;;4997647;28;20040;-57
2023/12/09 13:10:24;;;;;;;14.45;2.70;;;;;;;;;;4991962;28;20038;-58
2023/12/09 13:12:50;;;;;;;14.50;2.70;;;;;;;;;;4997317;28;20519;-55
2023/12/09 13:15:16;;;;;;;9.00;2.70;;;;;;;;;;4991368;28;20861;-54
2023/12/09 13:17:44;;;;;;;13.57;2.22;;;;;;;;;;4997493;28;20539;-56
2023/12/09 13:20:10;;;;;;;13.63;2.38;;;;;;;;;;4995051;28;20068;-56
2023/12/09 13:22:37;;;;;;;12.52;2.30;;;;;;;;;;4999790;28;20034;-56
2023/12/09 13:25:04;;;;;;;9.52;2.20;;;;;;;;;;4997067;28;20065;-57
2023/12/09 13:27:30;;;;;;;11.35;2.13;;;;;;;;;;4996735;28;20096;-55
2023/12/09 13:29:56;;;;;;;11.70;2.58;;;;;;;;;;4997029;28;20053;-57
2023/12/09 13:32:22;;;;;;;22.02;5.35;;;;;;;;;;4997318;28;20045;-56
2023/12/09 13:34:48;;;;;;;25.48;8.00;;;;;;;;;;4995253;28;20530;-54
2023/12/09 13:37:14;;;;;;;30.75;9.68;;;;;;;;;;4995571;28;20030;-55
2023/12/09 13:39:40;;;;;;;39.35;12.45;;;;;;;;;;4995335;28;20081;-56
2023/12/09 13:42:06;;;;;;;12.68;4.55;;;;;;;;;;4998299;28;20037;-56
2023/12/09 13:44:32;;;;;;;16.52;5.18;;;;;;;;;;4993815;28;20214;-55
2023/12/09 13:46:58;;;;;;;44.35;15.27;;;;;;;;;;4998335;28;20651;-55
2023/12/09 13:49:24;;;;;;;14.90;4.55;;;;;;;;;;4993221;28;20085;-55
2023/12/09 13:51:50;;;;;;;22.63;6.45;;;;;;;;;;4996503;28;20034;-56
2023/12/09 13:54:20;;;;;;;26.75;8.57;;;;;;;;;;4995113;28;20038;-54
2023/12/09 13:56:45;;;;;;;15.35;4.97;;;;;;;;;;4998882;28;20119;-56
2023/12/09 13:59:11;;;;;;;21.77;4.18;;;;;;;;;;4989610;28;20140;-54
2023/12/09 14:01:37;;;;;;;20.25;7.40;;;;;;;;;;4997762;28;20527;-58
2023/12/09 14:04:05;;;;;;;16.67;5.65;;;;;;;;;;4992284;28;20443;-58
2023/12/09 14:06:31;;;;;;;19.35;5.05;;;;;;;;;;4995632;28;20096;-57
2023/12/09 14:08:57;;;;;;;16.17;6.10;;;;;;;;;;4994332;28;20137;-58
2023/12/09 14:11:25;;;;;;;19.80;5.65;;;;;;;;;;4988017;28;20463;-58
2023/12/09 14:13:51;;;;;;;22.75;8.43;;;;;;;;;;4993834;28;20034;-56
2023/12/09 14:16:18;;;;;;;21.98;8.70;;;;;;;;;;4994813;28;20194;-56
2023/12/09 14:18:44;;;;;;;11.27;4.70;;;;;;;;;;4998085;28;20514;-55
2023/12/09 14:21:10;;;;;;;18.73;5.88;;;;;;;;;;4995682;28;20160;-57